sensor_id;sensor_type;location;lat;lon;timestamp;temperature;humidity
2889;DHT22;1453;42.708;23.282;2022-10-16T00:00:43;10.00;99.90
2889;DHT22;1453;42.708;23.282;2022-10-16T00:03:10;10.00;99.90
2889;DHT22;1453;42.708;23.282;2022-10-16T00:05:43;9.90;99.90
2889;DHT22;1453;42.708;23.282;2022-10-16T00:08:11;9.50;99.90
2889;DHT22;1453;42.708;23.282;2022-10-16T00:10:37;9.40;99.90
2889;DHT22;1453;42.708;23.282;2022-10-16T00:13:04;9.00;99.90
2889;DHT22;1453;42.708;23.282;2022-10-16T00:15:33;8.80;99.90
2889;DHT22;1453;42.708;23.282;2022-10-16T00:18:02;8.80;99.90
2889;DHT22;1453;42.708;23.282;2022-10-16T00:20:28;8.70;99.90
2889;DHT22;1453;42.708;23.282;2022-10-16T00:22:56;8.70;99.90
2889;DHT22;1453;42.708;23.282;2022-10-16T00:25:23;8.50;99.90
2889;DHT22;1453;42.708;23.282;2022-10-16T00:27:48;8.50;99.90
2889;DHT22;1453;42.708;23.282;2022-10-16T00:30:14;8.70;99.90
2889;DHT22;1453;42.708;23.282;2022-10-16T00:32:40;8.80;99.90
2889;DHT22;1453;42.708;23.282;2022-10-16T00:35:06;9.00;99.90
2889;DHT22;1453;42.708;23.282;2022-10-16T00:37:32;9.20;99.90
2889;DHT22;1453;42.708;23.282;2022-10-16T00:39:58;9.20;99.90
2889;DHT22;1453;42.708;23.282;2022-10-16T00:42:23;9.50;99.90
2889;DHT22;1453;42.708;23.282;2022-10-16T00:44:57;9.50;99.90
2889;DHT22;1453;42.708;23.282;2022-10-16T00:47:30;9.50;99.90
2889;DHT22;1453;42.708;23.282;2022-10-16T00:50:08;9.50;99.90
2889;DHT22;1453;42.708;23.282;2022-10-16T00:52:40;9.40;99.90
2889;DHT22;1453;42.708;23.282;2022-10-16T00:55:10;9.30;99.90
2889;DHT22;1453;42.708;23.282;2022-10-16T00:57:37;9.20;99.90
2889;DHT22;1453;42.708;23.282;2022-10-16T01:00:07;9.00;99.90
2889;DHT22;1453;42.708;23.282;2022-10-16T01:02:35;8.60;99.90
2889;DHT22;1453;42.708;23.282;2022-10-16T01:05:02;8.40;99.90
2889;DHT22;1453;42.708;23.282;2022-10-16T01:08:03;8.50;99.90
2889;DHT22;1453;42.708;23.282;2022-10-16T01:10:39;8.50;99.90
2889;DHT22;1453;42.708;23.282;2022-10-16T01:13:50;8.50;99.90
2889;DHT22;1453;42.708;23.282;2022-10-16T01:16:18;8.60;99.90
2889;DHT22;1453;42.708;23.282;2022-10-16T01:19:00;8.70;99.90
2889;DHT22;1453;42.708;23.282;2022-10-16T01:21:37;8.80;99.90
2889;DHT22;1453;42.708;23.282;2022-10-16T01:27:36;8.60;99.90
2889;DHT22;1453;42.708;23.282;2022-10-16T01:30:26;8.90;99.90
2889;DHT22;1453;42.708;23.282;2022-10-16T01:36:07;8.70;99.90
2889;DHT22;1453;42.708;23.282;2022-10-16T01:38:39;8.70;99.90
2889;DHT22;1453;42.708;23.282;2022-10-16T01:41:34;9.00;99.90
2889;DHT22;1453;42.708;23.282;2022-10-16T01:44:11;9.10;99.90
2889;DHT22;1453;42.708;23.282;2022-10-16T01:46:48;9.30;99.90
2889;DHT22;1453;42.708;23.282;2022-10-16T01:49:17;9.20;99.90
2889;DHT22;1453;42.708;23.282;2022-10-16T01:51:46;9.10;99.90
2889;DHT22;1453;42.708;23.282;2022-10-16T01:54:16;9.00;99.90
2889;DHT22;1453;42.708;23.282;2022-10-16T01:56:45;9.00;99.90
2889;DHT22;1453;42.708;23.282;2022-10-16T01:59:15;9.00;99.90
2889;DHT22;1453;42.708;23.282;2022-10-16T02:01:47;8.90;99.90
2889;DHT22;1453;42.708;23.282;2022-10-16T02:04:54;8.90;99.90
2889;DHT22;1453;42.708;23.282;2022-10-16T02:07:24;8.80;99.90
2889;DHT22;1453;42.708;23.282;2022-10-16T02:09:50;8.90;99.90
2889;DHT22;1453;42.708;23.282;2022-10-16T02:12:28;8.90;99.90
2889;DHT22;1453;42.708;23.282;2022-10-16T02:14:56;8.80;99.90
2889;DHT22;1453;42.708;23.282;2022-10-16T02:17:22;8.80;99.90
2889;DHT22;1453;42.708;23.282;2022-10-16T02:19:51;8.70;99.90
2889;DHT22;1453;42.708;23.282;2022-10-16T02:28:11;8.70;99.90
2889;DHT22;1453;42.708;23.282;2022-10-16T02:30:50;8.60;99.90
2889;DHT22;1453;42.708;23.282;2022-10-16T02:33:19;8.50;99.90
2889;DHT22;1453;42.708;23.282;2022-10-16T02:35:48;8.40;99.90
2889;DHT22;1453;42.708;23.282;2022-10-16T02:38:17;8.40;99.90
2889;DHT22;1453;42.708;23.282;2022-10-16T02:40:45;8.30;99.90
2889;DHT22;1453;42.708;23.282;2022-10-16T02:43:11;8.20;99.90
2889;DHT22;1453;42.708;23.282;2022-10-16T02:45:38;8.20;99.90
2889;DHT22;1453;42.708;23.282;2022-10-16T02:48:05;8.20;99.90
2889;DHT22;1453;42.708;23.282;2022-10-16T02:50:31;8.10;99.90
2889;DHT22;1453;42.708;23.282;2022-10-16T02:52:56;8.20;99.90
2889;DHT22;1453;42.708;23.282;2022-10-16T02:55:22;8.20;99.90
2889;DHT22;1453;42.708;23.282;2022-10-16T02:57:48;8.20;99.90
2889;DHT22;1453;42.708;23.282;2022-10-16T03:00:16;8.20;99.90
2889;DHT22;1453;42.708;23.282;2022-10-16T03:02:42;8.10;99.90
2889;DHT22;1453;42.708;23.282;2022-10-16T03:05:09;8.10;99.90
2889;DHT22;1453;42.708;23.282;2022-10-16T03:07:35;7.90;99.90
2889;DHT22;1453;42.708;23.282;2022-10-16T03:10:00;8.00;99.90
2889;DHT22;1453;42.708;23.282;2022-10-16T03:12:29;8.00;99.90
2889;DHT22;1453;42.708;23.282;2022-10-16T03:14:56;8.00;99.90
2889;DHT22;1453;42.708;23.282;2022-10-16T03:17:22;8.00;99.90
2889;DHT22;1453;42.708;23.282;2022-10-16T03:19:49;8.00;99.90
2889;DHT22;1453;42.708;23.282;2022-10-16T03:22:15;8.10;99.90
2889;DHT22;1453;42.708;23.282;2022-10-16T03:24:40;8.10;99.90
2889;DHT22;1453;42.708;23.282;2022-10-16T03:27:08;8.10;99.90
2889;DHT22;1453;42.708;23.282;2022-10-16T03:29:34;8.20;99.90
2889;DHT22;1453;42.708;23.282;2022-10-16T03:32:00;8.20;99.90
2889;DHT22;1453;42.708;23.282;2022-10-16T03:34:26;8.10;99.90
2889;DHT22;1453;42.708;23.282;2022-10-16T03:36:52;8.10;99.90
2889;DHT22;1453;42.708;23.282;2022-10-16T03:39:18;8.10;99.90
2889;DHT22;1453;42.708;23.282;2022-10-16T03:41:44;8.10;99.90
2889;DHT22;1453;42.708;23.282;2022-10-16T03:44:11;8.20;99.90
2889;DHT22;1453;42.708;23.282;2022-10-16T03:46:38;8.20;99.90
2889;DHT22;1453;42.708;23.282;2022-10-16T03:49:03;8.20;99.90
2889;DHT22;1453;42.708;23.282;2022-10-16T03:51:29;8.20;99.90
2889;DHT22;1453;42.708;23.282;2022-10-16T03:53:56;8.10;99.90
2889;DHT22;1453;42.708;23.282;2022-10-16T03:56:22;8.00;99.90
2889;DHT22;1453;42.708;23.282;2022-10-16T03:58:47;8.10;99.90
2889;DHT22;1453;42.708;23.282;2022-10-16T04:01:14;7.60;99.90
2889;DHT22;1453;42.708;23.282;2022-10-16T04:03:40;7.10;99.90
2889;DHT22;1453;42.708;23.282;2022-10-16T04:06:06;6.80;99.90
2889;DHT22;1453;42.708;23.282;2022-10-16T04:08:32;6.70;99.90
2889;DHT22;1453;42.708;23.282;2022-10-16T04:11:00;6.90;99.90
2889;DHT22;1453;42.708;23.282;2022-10-16T04:13:26;6.90;99.90
2889;DHT22;1453;42.708;23.282;2022-10-16T04:15:52;7.10;99.90
2889;DHT22;1453;42.708;23.282;2022-10-16T04:18:18;7.10;99.90
2889;DHT22;1453;42.708;23.282;2022-10-16T04:20:44;7.10;99.90
2889;DHT22;1453;42.708;23.282;2022-10-16T04:23:10;7.30;99.90
2889;DHT22;1453;42.708;23.282;2022-10-16T04:25:36;7.40;99.90
2889;DHT22;1453;42.708;23.282;2022-10-16T04:28:02;7.40;99.90
2889;DHT22;1453;42.708;23.282;2022-10-16T04:30:27;7.50;99.90
2889;DHT22;1453;42.708;23.282;2022-10-16T04:32:53;7.50;99.90
2889;DHT22;1453;42.708;23.282;2022-10-16T04:35:21;7.50;99.90
2889;DHT22;1453;42.708;23.282;2022-10-16T04:37:47;7.50;99.90
2889;DHT22;1453;42.708;23.282;2022-10-16T04:40:13;7.50;99.90
2889;DHT22;1453;42.708;23.282;2022-10-16T04:42:40;7.70;99.90
2889;DHT22;1453;42.708;23.282;2022-10-16T04:45:06;7.70;99.90
2889;DHT22;1453;42.708;23.282;2022-10-16T04:47:33;7.70;99.90
2889;DHT22;1453;42.708;23.282;2022-10-16T04:49:59;7.70;99.90
2889;DHT22;1453;42.708;23.282;2022-10-16T04:52:28;7.70;99.90
2889;DHT22;1453;42.708;23.282;2022-10-16T04:54:54;7.70;99.90
2889;DHT22;1453;42.708;23.282;2022-10-16T04:57:21;7.70;99.90
2889;DHT22;1453;42.708;23.282;2022-10-16T04:59:47;7.90;99.90
2889;DHT22;1453;42.708;23.282;2022-10-16T05:02:13;7.80;99.90
2889;DHT22;1453;42.708;23.282;2022-10-16T05:04:39;7.90;99.90
2889;DHT22;1453;42.708;23.282;2022-10-16T05:07:04;7.90;99.90
2889;DHT22;1453;42.708;23.282;2022-10-16T05:09:30;7.80;99.90
2889;DHT22;1453;42.708;23.282;2022-10-16T05:11:56;7.80;99.90
2889;DHT22;1453;42.708;23.282;2022-10-16T05:14:22;7.70;99.90
2889;DHT22;1453;42.708;23.282;2022-10-16T05:16:48;7.80;99.90
2889;DHT22;1453;42.708;23.282;2022-10-16T05:19:14;8.00;99.90
2889;DHT22;1453;42.708;23.282;2022-10-16T05:21:40;7.80;99.90
2889;DHT22;1453;42.708;23.282;2022-10-16T05:24:06;7.80;99.90
2889;DHT22;1453;42.708;23.282;2022-10-16T05:26:31;7.80;99.90
2889;DHT22;1453;42.708;23.282;2022-10-16T05:28:57;7.90;99.90
2889;DHT22;1453;42.708;23.282;2022-10-16T05:31:23;8.00;99.90
2889;DHT22;1453;42.708;23.282;2022-10-16T05:33:49;7.90;99.90
2889;DHT22;1453;42.708;23.282;2022-10-16T05:36:14;7.90;99.90
2889;DHT22;1453;42.708;23.282;2022-10-16T05:38:40;8.10;99.90
2889;DHT22;1453;42.708;23.282;2022-10-16T05:41:06;8.30;99.90
2889;DHT22;1453;42.708;23.282;2022-10-16T05:43:32;8.50;99.90
2889;DHT22;1453;42.708;23.282;2022-10-16T05:46:03;8.60;99.90
2889;DHT22;1453;42.708;23.282;2022-10-16T05:48:31;8.60;99.90
2889;DHT22;1453;42.708;23.282;2022-10-16T05:51:03;8.60;99.90
2889;DHT22;1453;42.708;23.282;2022-10-16T05:53:31;8.60;99.90
2889;DHT22;1453;42.708;23.282;2022-10-16T05:55:59;8.70;99.90
2889;DHT22;1453;42.708;23.282;2022-10-16T05:58:28;8.90;99.90
2889;DHT22;1453;42.708;23.282;2022-10-16T06:01:00;9.00;99.90
2889;DHT22;1453;42.708;23.282;2022-10-16T06:03:35;9.50;99.90
2889;DHT22;1453;42.708;23.282;2022-10-16T06:06:22;10.10;99.90
2889;DHT22;1453;42.708;23.282;2022-10-16T06:08:51;10.90;99.90
2889;DHT22;1453;42.708;23.282;2022-10-16T06:11:21;11.80;99.90
2889;DHT22;1453;42.708;23.282;2022-10-16T06:13:53;13.00;99.90
2889;DHT22;1453;42.708;23.282;2022-10-16T06:16:22;13.40;99.90
2889;DHT22;1453;42.708;23.282;2022-10-16T06:18:51;14.00;99.90
2889;DHT22;1453;42.708;23.282;2022-10-16T06:21:19;13.70;99.90
2889;DHT22;1453;42.708;23.282;2022-10-16T06:23:47;14.80;99.90
2889;DHT22;1453;42.708;23.282;2022-10-16T06:26:16;15.40;99.90
2889;DHT22;1453;42.708;23.282;2022-10-16T06:28:43;15.70;99.90
2889;DHT22;1453;42.708;23.282;2022-10-16T06:31:11;15.80;99.90
2889;DHT22;1453;42.708;23.282;2022-10-16T06:33:38;15.40;99.90
2889;DHT22;1453;42.708;23.282;2022-10-16T06:36:10;16.20;99.90
2889;DHT22;1453;42.708;23.282;2022-10-16T06:38:40;16.30;99.20
2889;DHT22;1453;42.708;23.282;2022-10-16T06:41:09;15.30;99.90
2889;DHT22;1453;42.708;23.282;2022-10-16T06:43:37;15.40;99.90
2889;DHT22;1453;42.708;23.282;2022-10-16T06:46:05;14.60;99.90
2889;DHT22;1453;42.708;23.282;2022-10-16T06:48:33;15.00;99.90
2889;DHT22;1453;42.708;23.282;2022-10-16T06:51:20;15.90;99.90
2889;DHT22;1453;42.708;23.282;2022-10-16T06:53:48;16.80;99.90
2889;DHT22;1453;42.708;23.282;2022-10-16T06:56:24;17.20;96.30
2889;DHT22;1453;42.708;23.282;2022-10-16T06:58:51;17.60;93.60
2889;DHT22;1453;42.708;23.282;2022-10-16T07:01:21;17.70;93.60
2889;DHT22;1453;42.708;23.282;2022-10-16T07:03:48;18.10;92.90
2889;DHT22;1453;42.708;23.282;2022-10-16T07:06:16;18.30;91.80
2889;DHT22;1453;42.708;23.282;2022-10-16T07:08:45;18.70;90.60
2889;DHT22;1453;42.708;23.282;2022-10-16T07:11:14;18.80;90.10
2889;DHT22;1453;42.708;23.282;2022-10-16T07:13:42;18.70;89.60
2889;DHT22;1453;42.708;23.282;2022-10-16T07:18:40;18.30;90.60
2889;DHT22;1453;42.708;23.282;2022-10-16T07:21:10;18.60;89.20
2889;DHT22;1453;42.708;23.282;2022-10-16T07:23:37;19.20;87.50
2889;DHT22;1453;42.708;23.282;2022-10-16T07:26:04;19.60;85.80
2889;DHT22;1453;42.708;23.282;2022-10-16T07:28:31;20.00;83.70
2889;DHT22;1453;42.708;23.282;2022-10-16T07:31:17;20.20;80.90
2889;DHT22;1453;42.708;23.282;2022-10-16T07:33:44;19.20;82.00
2889;DHT22;1453;42.708;23.282;2022-10-16T07:36:12;18.90;83.20
2889;DHT22;1453;42.708;23.282;2022-10-16T07:38:38;18.50;82.20
2889;DHT22;1453;42.708;23.282;2022-10-16T07:41:06;18.40;85.50
2889;DHT22;1453;42.708;23.282;2022-10-16T07:43:33;19.20;84.50
2889;DHT22;1453;42.708;23.282;2022-10-16T07:45:59;20.70;81.80
2889;DHT22;1453;42.708;23.282;2022-10-16T07:48:31;20.10;79.30
2889;DHT22;1453;42.708;23.282;2022-10-16T07:51:04;20.60;79.20
2889;DHT22;1453;42.708;23.282;2022-10-16T07:53:31;21.70;77.00
2889;DHT22;1453;42.708;23.282;2022-10-16T07:55:59;20.30;75.30
2889;DHT22;1453;42.708;23.282;2022-10-16T07:58:27;21.00;76.90
2889;DHT22;1453;42.708;23.282;2022-10-16T08:00:53;21.00;74.70
2889;DHT22;1453;42.708;23.282;2022-10-16T08:03:19;20.00;77.70
2889;DHT22;1453;42.708;23.282;2022-10-16T08:05:45;20.60;77.80
2889;DHT22;1453;42.708;23.282;2022-10-16T08:08:15;22.20;74.40
2889;DHT22;1453;42.708;23.282;2022-10-16T08:10:41;22.30;71.10
2889;DHT22;1453;42.708;23.282;2022-10-16T08:13:08;22.80;70.50
2889;DHT22;1453;42.708;23.282;2022-10-16T08:15:34;22.80;70.50
2889;DHT22;1453;42.708;23.282;2022-10-16T08:18:03;22.30;70.40
2889;DHT22;1453;42.708;23.282;2022-10-16T08:20:30;21.80;69.90
2889;DHT22;1453;42.708;23.282;2022-10-16T08:22:59;21.20;73.40
2889;DHT22;1453;42.708;23.282;2022-10-16T08:25:26;21.80;70.40
2889;DHT22;1453;42.708;23.282;2022-10-16T08:27:52;20.90;70.90
2889;DHT22;1453;42.708;23.282;2022-10-16T08:30:19;20.30;72.10
2889;DHT22;1453;42.708;23.282;2022-10-16T08:32:46;19.90;76.20
2889;DHT22;1453;42.708;23.282;2022-10-16T08:35:13;19.90;74.20
2889;DHT22;1453;42.708;23.282;2022-10-16T08:37:42;20.10;77.10
2889;DHT22;1453;42.708;23.282;2022-10-16T08:40:28;21.70;73.90
2889;DHT22;1453;42.708;23.282;2022-10-16T08:48:51;20.30;71.00
2889;DHT22;1453;42.708;23.282;2022-10-16T08:51:24;21.20;73.10
2889;DHT22;1453;42.708;23.282;2022-10-16T08:56:29;22.40;69.10
2889;DHT22;1453;42.708;23.282;2022-10-16T08:58:58;23.20;64.30
2889;DHT22;1453;42.708;23.282;2022-10-16T09:01:44;22.40;66.90
2889;DHT22;1453;42.708;23.282;2022-10-16T09:07:25;24.80;63.70
2889;DHT22;1453;42.708;23.282;2022-10-16T09:16:05;24.40;59.40
2889;DHT22;1453;42.708;23.282;2022-10-16T09:18:54;24.40;60.40
2889;DHT22;1453;42.708;23.282;2022-10-16T09:21:36;23.70;59.50
2889;DHT22;1453;42.708;23.282;2022-10-16T09:24:18;23.40;59.60
2889;DHT22;1453;42.708;23.282;2022-10-16T09:26:46;23.70;58.30
2889;DHT22;1453;42.708;23.282;2022-10-16T09:29:13;23.90;57.20
2889;DHT22;1453;42.708;23.282;2022-10-16T09:31:41;23.40;58.30
2889;DHT22;1453;42.708;23.282;2022-10-16T09:36:51;24.10;57.60
2889;DHT22;1453;42.708;23.282;2022-10-16T09:39:17;24.50;56.00
2889;DHT22;1453;42.708;23.282;2022-10-16T09:41:44;25.30;56.40
2889;DHT22;1453;42.708;23.282;2022-10-16T09:44:29;25.40;55.30
2889;DHT22;1453;42.708;23.282;2022-10-16T09:47:13;25.90;54.50
2889;DHT22;1453;42.708;23.282;2022-10-16T09:49:56;25.60;55.20
2889;DHT22;1453;42.708;23.282;2022-10-16T09:52:28;25.30;55.30
2889;DHT22;1453;42.708;23.282;2022-10-16T09:55:00;25.30;54.30
2889;DHT22;1453;42.708;23.282;2022-10-16T09:57:28;25.20;54.30
2889;DHT22;1453;42.708;23.282;2022-10-16T09:59:57;25.70;53.70
2889;DHT22;1453;42.708;23.282;2022-10-16T10:02:30;25.60;55.20
2889;DHT22;1453;42.708;23.282;2022-10-16T10:04:56;25.80;54.50
2889;DHT22;1453;42.708;23.282;2022-10-16T10:07:29;25.70;53.50
2889;DHT22;1453;42.708;23.282;2022-10-16T10:10:01;25.10;54.40
2889;DHT22;1453;42.708;23.282;2022-10-16T10:12:30;25.50;54.10
2889;DHT22;1453;42.708;23.282;2022-10-16T10:15:11;26.30;53.80
2889;DHT22;1453;42.708;23.282;2022-10-16T10:17:54;25.40;53.00
2889;DHT22;1453;42.708;23.282;2022-10-16T10:20:26;25.10;53.40
2889;DHT22;1453;42.708;23.282;2022-10-16T10:23:00;24.70;54.90
2889;DHT22;1453;42.708;23.282;2022-10-16T10:29:03;25.30;55.20
2889;DHT22;1453;42.708;23.282;2022-10-16T10:46:02;25.10;54.00
2889;DHT22;1453;42.708;23.282;2022-10-16T10:48:54;24.40;55.00
2889;DHT22;1453;42.708;23.282;2022-10-16T10:57:41;23.90;54.70
2889;DHT22;1453;42.708;23.282;2022-10-16T11:08:51;24.90;55.70
2889;DHT22;1453;42.708;23.282;2022-10-16T11:11:32;24.40;54.20
2889;DHT22;1453;42.708;23.282;2022-10-16T11:28:11;25.90;52.80
2889;DHT22;1453;42.708;23.282;2022-10-16T11:31:02;25.70;53.60
2889;DHT22;1453;42.708;23.282;2022-10-16T11:36:40;27.90;52.70
2889;DHT22;1453;42.708;23.282;2022-10-16T11:39:25;28.20;51.10
2889;DHT22;1453;42.708;23.282;2022-10-16T11:42:03;28.10;51.20
2889;DHT22;1453;42.708;23.282;2022-10-16T11:44:54;27.00;52.20
2889;DHT22;1453;42.708;23.282;2022-10-16T11:54:16;26.80;50.80
2889;DHT22;1453;42.708;23.282;2022-10-16T11:56:23;25.70;53.20
2889;DHT22;1453;42.708;23.282;2022-10-16T11:59:04;27.00;52.10
2889;DHT22;1453;42.708;23.282;2022-10-16T12:02:26;27.30;50.50
2889;DHT22;1453;42.708;23.282;2022-10-16T12:05:28;26.20;50.20
2889;DHT22;1453;42.708;23.282;2022-10-16T12:10:30;27.10;50.50
2889;DHT22;1453;42.708;23.282;2022-10-16T12:12:57;27.20;49.30
2889;DHT22;1453;42.708;23.282;2022-10-16T12:15:41;26.80;48.80
2889;DHT22;1453;42.708;23.282;2022-10-16T12:18:23;25.90;49.50
2889;DHT22;1453;42.708;23.282;2022-10-16T12:20:57;27.20;49.90
2889;DHT22;1453;42.708;23.282;2022-10-16T12:23:25;28.30;48.90
2889;DHT22;1453;42.708;23.282;2022-10-16T12:28:30;27.30;47.50
2889;DHT22;1453;42.708;23.282;2022-10-16T12:31:05;28.50;48.70
2889;DHT22;1453;42.708;23.282;2022-10-16T12:33:34;29.00;47.50
2889;DHT22;1453;42.708;23.282;2022-10-16T12:36:15;28.60;46.00
2889;DHT22;1453;42.708;23.282;2022-10-16T12:38:52;29.20;46.70
2889;DHT22;1453;42.708;23.282;2022-10-16T12:41:33;29.50;46.00
2889;DHT22;1453;42.708;23.282;2022-10-16T12:44:05;29.20;45.40
2889;DHT22;1453;42.708;23.282;2022-10-16T12:46:48;28.90;45.40
2889;DHT22;1453;42.708;23.282;2022-10-16T12:49:31;27.10;46.80
2889;DHT22;1453;42.708;23.282;2022-10-16T12:51:59;27.70;47.90
2889;DHT22;1453;42.708;23.282;2022-10-16T12:54:37;28.30;46.50
2889;DHT22;1453;42.708;23.282;2022-10-16T13:02:51;28.50;45.70
2889;DHT22;1453;42.708;23.282;2022-10-16T13:06:04;28.60;45.30
2889;DHT22;1453;42.708;23.282;2022-10-16T13:11:57;26.90;46.10
2889;DHT22;1453;42.708;23.282;2022-10-16T13:15:16;26.90;45.90
2889;DHT22;1453;42.708;23.282;2022-10-16T13:26:37;25.30;48.60
2889;DHT22;1453;42.708;23.282;2022-10-16T13:29:06;25.70;47.90
2889;DHT22;1453;42.708;23.282;2022-10-16T13:31:33;26.30;47.00
2889;DHT22;1453;42.708;23.282;2022-10-16T13:34:00;26.70;46.80
2889;DHT22;1453;42.708;23.282;2022-10-16T13:36:28;27.40;45.80
2889;DHT22;1453;42.708;23.282;2022-10-16T13:39:13;26.70;46.60
2889;DHT22;1453;42.708;23.282;2022-10-16T13:42:22;26.40;47.20
2889;DHT22;1453;42.708;23.282;2022-10-16T13:44:51;27.00;47.10
2889;DHT22;1453;42.708;23.282;2022-10-16T13:49:47;27.30;47.20
2889;DHT22;1453;42.708;23.282;2022-10-16T13:52:40;27.20;45.60
2889;DHT22;1453;42.708;23.282;2022-10-16T13:55:15;26.90;46.70
2889;DHT22;1453;42.708;23.282;2022-10-16T13:57:42;26.60;45.50
2889;DHT22;1453;42.708;23.282;2022-10-16T14:00:20;27.30;45.00
2889;DHT22;1453;42.708;23.282;2022-10-16T14:02:54;28.10;44.40
2889;DHT22;1453;42.708;23.282;2022-10-16T14:05:23;27.80;43.90
2889;DHT22;1453;42.708;23.282;2022-10-16T14:07:50;27.60;43.60
2889;DHT22;1453;42.708;23.282;2022-10-16T14:10:26;27.60;43.90
2889;DHT22;1453;42.708;23.282;2022-10-16T14:13:06;26.10;44.00
2889;DHT22;1453;42.708;23.282;2022-10-16T14:15:34;25.50;45.20
2889;DHT22;1453;42.708;23.282;2022-10-16T14:18:01;25.10;45.50
2889;DHT22;1453;42.708;23.282;2022-10-16T14:20:31;24.90;45.90
2889;DHT22;1453;42.708;23.282;2022-10-16T14:23:22;25.30;45.70
2889;DHT22;1453;42.708;23.282;2022-10-16T14:25:49;24.80;46.10
2889;DHT22;1453;42.708;23.282;2022-10-16T14:28:22;24.10;46.20
2889;DHT22;1453;42.708;23.282;2022-10-16T14:30:59;23.90;46.20
2889;DHT22;1453;42.708;23.282;2022-10-16T14:36:05;24.70;46.50
2889;DHT22;1453;42.708;23.282;2022-10-16T14:38:32;25.30;45.50
2889;DHT22;1453;42.708;23.282;2022-10-16T14:40:59;23.60;45.70
2889;DHT22;1453;42.708;23.282;2022-10-16T14:43:37;23.30;47.10
2889;DHT22;1453;42.708;23.282;2022-10-16T14:46:16;23.20;46.80
2889;DHT22;1453;42.708;23.282;2022-10-16T14:48:46;22.40;47.90
2889;DHT22;1453;42.708;23.282;2022-10-16T14:51:16;22.10;48.00
2889;DHT22;1453;42.708;23.282;2022-10-16T14:53:42;21.80;48.40
2889;DHT22;1453;42.708;23.282;2022-10-16T14:56:23;22.10;49.40
2889;DHT22;1453;42.708;23.282;2022-10-16T14:58:51;22.40;48.70
2889;DHT22;1453;42.708;23.282;2022-10-16T15:01:17;21.90;49.20
2889;DHT22;1453;42.708;23.282;2022-10-16T15:03:44;21.70;49.30
2889;DHT22;1453;42.708;23.282;2022-10-16T15:06:16;21.20;49.30
2889;DHT22;1453;42.708;23.282;2022-10-16T15:08:43;21.00;50.20
2889;DHT22;1453;42.708;23.282;2022-10-16T15:11:17;21.60;50.10
2889;DHT22;1453;42.708;23.282;2022-10-16T15:13:44;21.00;50.00
2889;DHT22;1453;42.708;23.282;2022-10-16T15:16:12;20.90;50.70
2889;DHT22;1453;42.708;23.282;2022-10-16T15:18:42;21.00;51.00
2889;DHT22;1453;42.708;23.282;2022-10-16T15:23:52;20.10;52.00
2889;DHT22;1453;42.708;23.282;2022-10-16T15:26:18;19.80;52.10
2889;DHT22;1453;42.708;23.282;2022-10-16T15:28:43;19.70;52.30
2889;DHT22;1453;42.708;23.282;2022-10-16T15:31:09;19.10;53.20
2889;DHT22;1453;42.708;23.282;2022-10-16T15:33:35;19.30;53.60
2889;DHT22;1453;42.708;23.282;2022-10-16T15:36:02;19.10;54.20
2889;DHT22;1453;42.708;23.282;2022-10-16T15:38:29;18.60;54.10
2889;DHT22;1453;42.708;23.282;2022-10-16T15:40:55;18.60;54.50
2889;DHT22;1453;42.708;23.282;2022-10-16T15:43:22;18.40;54.40
2889;DHT22;1453;42.708;23.282;2022-10-16T15:45:59;18.30;55.00
2889;DHT22;1453;42.708;23.282;2022-10-16T15:48:30;18.00;55.20
2889;DHT22;1453;42.708;23.282;2022-10-16T15:50:56;17.80;55.70
2889;DHT22;1453;42.708;23.282;2022-10-16T15:53:22;17.60;55.90
2889;DHT22;1453;42.708;23.282;2022-10-16T15:55:48;17.50;56.20
2889;DHT22;1453;42.708;23.282;2022-10-16T15:58:14;17.50;56.70
2889;DHT22;1453;42.708;23.282;2022-10-16T16:00:40;17.30;56.70
2889;DHT22;1453;42.708;23.282;2022-10-16T16:03:06;17.30;57.00
2889;DHT22;1453;42.708;23.282;2022-10-16T16:05:32;17.10;57.40
2889;DHT22;1453;42.708;23.282;2022-10-16T16:07:58;16.90;57.50
2889;DHT22;1453;42.708;23.282;2022-10-16T16:10:24;16.70;58.10
2889;DHT22;1453;42.708;23.282;2022-10-16T16:12:51;16.70;58.30
2889;DHT22;1453;42.708;23.282;2022-10-16T16:15:20;16.60;58.30
2889;DHT22;1453;42.708;23.282;2022-10-16T16:17:47;16.40;58.50
2889;DHT22;1453;42.708;23.282;2022-10-16T16:20:13;16.20;59.10
2889;DHT22;1453;42.708;23.282;2022-10-16T16:22:39;16.40;59.40
2889;DHT22;1453;42.708;23.282;2022-10-16T16:25:05;16.30;59.40
2889;DHT22;1453;42.708;23.282;2022-10-16T16:27:31;16.20;60.40
2889;DHT22;1453;42.708;23.282;2022-10-16T16:30:00;16.30;60.10
2889;DHT22;1453;42.708;23.282;2022-10-16T16:32:28;16.20;59.80
2889;DHT22;1453;42.708;23.282;2022-10-16T16:34:54;16.10;60.30
2889;DHT22;1453;42.708;23.282;2022-10-16T16:37:20;16.00;60.50
2889;DHT22;1453;42.708;23.282;2022-10-16T16:39:46;15.90;60.60
2889;DHT22;1453;42.708;23.282;2022-10-16T16:42:12;15.90;61.40
2889;DHT22;1453;42.708;23.282;2022-10-16T16:44:38;16.00;60.70
2889;DHT22;1453;42.708;23.282;2022-10-16T16:47:04;16.00;60.60
2889;DHT22;1453;42.708;23.282;2022-10-16T16:49:31;15.90;61.10
2889;DHT22;1453;42.708;23.282;2022-10-16T16:51:57;15.60;62.30
2889;DHT22;1453;42.708;23.282;2022-10-16T16:54:23;15.40;63.30
2889;DHT22;1453;42.708;23.282;2022-10-16T16:56:48;15.30;62.80
2889;DHT22;1453;42.708;23.282;2022-10-16T16:59:16;15.40;63.20
2889;DHT22;1453;42.708;23.282;2022-10-16T17:01:45;15.30;63.50
2889;DHT22;1453;42.708;23.282;2022-10-16T17:04:12;15.20;64.20
2889;DHT22;1453;42.708;23.282;2022-10-16T17:06:40;15.20;64.40
2889;DHT22;1453;42.708;23.282;2022-10-16T17:09:07;15.30;64.30
2889;DHT22;1453;42.708;23.282;2022-10-16T17:11:35;15.20;64.30
2889;DHT22;1453;42.708;23.282;2022-10-16T17:14:01;15.30;64.90
2889;DHT22;1453;42.708;23.282;2022-10-16T17:16:31;15.40;64.50
2889;DHT22;1453;42.708;23.282;2022-10-16T17:19:00;15.30;65.10
2889;DHT22;1453;42.708;23.282;2022-10-16T17:21:29;15.10;66.10
2889;DHT22;1453;42.708;23.282;2022-10-16T17:23:58;15.10;67.10
2889;DHT22;1453;42.708;23.282;2022-10-16T17:26:24;15.00;67.10
2889;DHT22;1453;42.708;23.282;2022-10-16T17:28:51;15.00;67.40
2889;DHT22;1453;42.708;23.282;2022-10-16T17:31:21;15.10;67.00
2889;DHT22;1453;42.708;23.282;2022-10-16T17:33:48;15.10;67.20
2889;DHT22;1453;42.708;23.282;2022-10-16T17:36:17;15.10;67.10
2889;DHT22;1453;42.708;23.282;2022-10-16T17:38:43;15.10;66.90
2889;DHT22;1453;42.708;23.282;2022-10-16T17:43:37;14.90;67.70
2889;DHT22;1453;42.708;23.282;2022-10-16T17:46:04;14.80;67.50
2889;DHT22;1453;42.708;23.282;2022-10-16T17:48:31;14.90;68.00
2889;DHT22;1453;42.708;23.282;2022-10-16T17:51:04;14.90;68.30
2889;DHT22;1453;42.708;23.282;2022-10-16T17:53:31;14.80;69.10
2889;DHT22;1453;42.708;23.282;2022-10-16T17:56:05;14.80;69.90
2889;DHT22;1453;42.708;23.282;2022-10-16T17:58:32;14.70;70.00
2889;DHT22;1453;42.708;23.282;2022-10-16T18:00:58;14.60;70.50
2889;DHT22;1453;42.708;23.282;2022-10-16T18:03:24;14.40;70.70
2889;DHT22;1453;42.708;23.282;2022-10-16T18:05:52;14.30;72.00
2889;DHT22;1453;42.708;23.282;2022-10-16T18:08:19;14.20;73.10
2889;DHT22;1453;42.708;23.282;2022-10-16T18:10:46;14.10;73.60
2889;DHT22;1453;42.708;23.282;2022-10-16T18:13:15;14.20;75.70
2889;DHT22;1453;42.708;23.282;2022-10-16T18:15:42;14.10;77.50
2889;DHT22;1453;42.708;23.282;2022-10-16T18:18:08;14.10;77.80